Time;durP1;ratioP1;P1;durP2;ratioP2;P2;SDS_P1;SDS_P2;PMS_P1;PMS_P2;Temp;Humidity;BMP_temperature;BMP_pressure;BME280_temperature;BME280_humidity;BME280_pressure;Samples;Min_cycle;Max_cycle;Signal;HPM_P1;HPM_P2
2023/02/13 00:01:05;;;;;;;24.50;21.90;;;7.90;99.90;;;;;;5014462;28;20462;-71
2023/02/13 00:03:35;;;;;;;25.80;23.00;;;8.00;99.90;;;;;;5014717;28;20434;-71
2023/02/13 00:06:03;;;;;;;27.30;24.23;;;8.00;99.90;;;;;;4996746;28;20882;-72
2023/02/13 00:08:31;;;;;;;26.93;23.10;;;8.00;99.90;;;;;;5014325;28;21020;-72
2023/02/13 00:10:59;;;;;;;25.53;22.37;;;7.90;99.90;;;;;;4996609;28;20494;-72
2023/02/13 00:13:27;;;;;;;24.27;21.60;;;8.00;99.90;;;;;;5014237;28;20439;-72
2023/02/13 00:15:56;;;;;;;24.40;21.87;;;7.90;99.90;;;;;;4996636;28;20452;-72
2023/02/13 00:18:24;;;;;;;25.73;22.93;;;7.90;99.90;;;;;;5014520;28;20433;-72
2023/02/13 00:21:08;;;;;;;30.30;23.03;;;8.00;99.90;;;;;;5014099;28;20529;-72
2023/02/13 00:23:38;;;;;;;25.13;22.43;;;7.90;99.90;;;;;;4996783;28;20816;-72
2023/02/13 00:26:09;;;;;;;26.17;22.37;;;7.90;99.90;;;;;;4996274;28;20481;-71
2023/02/13 00:28:40;;;;;;;24.33;21.80;;;8.00;99.90;;;;;;4996279;28;20986;-71
2023/02/13 00:31:10;;;;;;;24.53;20.47;;;7.90;99.90;;;;;;4995820;28;20473;-72
2023/02/13 00:33:39;;;;;;;25.87;22.93;;;7.90;99.90;;;;;;4996388;28;20448;-72
2023/02/13 00:36:11;;;;;;;27.30;22.33;;;7.90;99.90;;;;;;5013798;28;20439;-72
2023/02/13 00:38:41;;;;;;;25.87;22.80;;;7.90;99.90;;;;;;4996292;28;20530;-71
2023/02/13 00:41:10;;;;;;;28.50;22.63;;;7.90;99.90;;;;;;4996128;28;20526;-71
2023/02/13 00:43:38;;;;;;;26.30;22.70;;;7.90;99.90;;;;;;5013786;28;20543;-71
2023/02/13 00:46:06;;;;;;;27.60;23.17;;;7.90;99.90;;;;;;4996018;28;20473;-71
2023/02/13 00:48:35;;;;;;;23.53;20.50;;;7.90;99.90;;;;;;4996103;28;21033;-71
2023/02/13 00:51:06;;;;;;;25.07;22.40;;;7.90;99.90;;;;;;4996032;28;20473;-71
2023/02/13 00:53:36;;;;;;;24.30;21.70;;;7.90;99.90;;;;;;4996016;28;20455;-71
2023/02/13 00:56:06;;;;;;;26.63;23.60;;;7.90;99.90;;;;;;5013625;28;20432;-71
2023/02/13 00:58:36;;;;;;;27.50;22.60;;;7.90;99.90;;;;;;4996658;28;20444;-72
2023/02/13 01:01:04;;;;;;;26.23;21.90;;;7.90;99.90;;;;;;5013455;28;20492;-72
2023/02/13 01:03:33;;;;;;;26.37;22.97;;;7.90;99.90;;;;;;4995957;28;20450;-71
2023/02/13 01:06:01;;;;;;;26.90;23.67;;;7.90;99.90;;;;;;4995804;28;20470;-71
2023/02/13 01:08:29;;;;;;;23.53;20.77;;;7.90;99.90;;;;;;4995904;28;20505;-71
2023/02/13 01:10:58;;;;;;;27.27;21.83;;;7.90;99.90;;;;;;4995878;28;20470;-71
2023/02/13 01:13:27;;;;;;;30.37;22.90;;;7.80;99.90;;;;;;4995846;28;20457;-71
2023/02/13 01:15:55;;;;;;;25.63;21.93;;;7.90;99.90;;;;;;4995838;28;20450;-71
2023/02/13 01:18:24;;;;;;;26.47;23.23;;;7.90;99.90;;;;;;4995718;28;20459;-71
2023/02/13 01:21:00;;;;;;;25.37;21.70;;;7.80;99.90;;;;;;5013239;28;20455;-72
2023/02/13 01:23:33;;;;;;;26.13;22.33;;;7.90;99.90;;;;;;5013986;28;20423;-71
2023/02/13 01:26:04;;;;;;;26.93;24.03;;;7.90;99.90;;;;;;5013549;28;20460;-72
2023/02/13 01:28:32;;;;;;;28.67;25.60;;;7.90;99.90;;;;;;4995785;28;20473;-72
2023/02/13 01:31:00;;;;;;;27.37;24.07;;;7.90;99.90;;;;;;4995550;28;20524;-71
2023/02/13 01:33:29;;;;;;;25.50;22.73;;;7.90;99.90;;;;;;4995657;28;20823;-71
2023/02/13 01:35:59;;;;;;;28.83;24.73;;;7.90;99.90;;;;;;4995795;28;20804;-71
2023/02/13 01:38:28;;;;;;;28.80;25.70;;;7.90;99.90;;;;;;4995477;28;20454;-71
2023/02/13 01:40:56;;;;;;;29.77;26.27;;;7.80;99.90;;;;;;4996641;28;20989;-71
2023/02/13 01:43:44;;;;;;;34.20;26.63;;;7.80;99.90;;;;;;4999490;28;20457;-71
2023/02/13 01:46:15;;;;;;;32.50;26.57;;;7.90;99.90;;;;;;5017520;28;20462;-71
2023/02/13 01:48:43;;;;;;;32.10;27.90;;;7.80;99.90;;;;;;5017290;28;20425;-71
2023/02/13 01:51:15;;;;;;;30.93;25.07;;;7.80;99.90;;;;;;4999272;28;20503;-71
2023/02/13 01:53:48;;;;;;;39.33;29.67;;;7.80;99.90;;;;;;4999252;28;20475;-71
2023/02/13 01:56:23;;;;;;;33.30;27.53;;;7.80;99.90;;;;;;4999511;28;20944;-71
2023/02/13 01:58:59;;;;;;;31.13;26.40;;;7.80;99.90;;;;;;4999101;28;21009;-71
2023/02/13 02:01:28;;;;;;;30.90;27.20;;;7.80;99.90;;;;;;4999099;28;20504;-71
2023/02/13 02:04:00;;;;;;;36.83;29.10;;;7.80;99.90;;;;;;4999120;28;20504;-71
2023/02/13 02:06:35;;;;;;;32.03;26.97;;;7.80;99.90;;;;;;4999007;28;20472;-71
2023/02/13 02:09:07;;;;;;;32.83;26.13;;;7.80;99.90;;;;;;5016583;28;20797;-71
2023/02/13 02:11:39;;;;;;;31.80;26.70;;;7.80;99.90;;;;;;4998980;28;20452;-71
2023/02/13 02:14:09;;;;;;;34.73;27.73;;;7.80;99.90;;;;;;4998945;28;20532;-71
2023/02/13 02:16:37;;;;;;;34.60;28.13;;;7.80;99.90;;;;;;4998914;28;20457;-71
2023/02/13 02:19:14;;;;;;;34.40;28.93;;;7.80;99.90;;;;;;5016353;28;20443;-71
2023/02/13 02:22:14;;;;;;;34.33;27.53;;;7.80;99.90;;;;;;4998779;28;20470;-71
2023/02/13 02:25:12;;;;;;;33.53;27.20;;;7.80;99.90;;;;;;4998711;28;20453;-71
2023/02/13 02:28:32;;;;;;;32.30;25.73;;;7.80;99.90;;;;;;5016598;28;20456;-71
2023/02/13 02:31:44;;;;;;;32.07;26.70;;;7.80;99.90;;;;;;4935862;29;20494;-71
2023/02/13 02:34:25;;;;;;;30.73;26.20;;;7.80;99.90;;;;;;4998963;28;20505;-71
2023/02/13 02:37:09;;;;;;;28.97;24.80;;;7.80;99.90;;;;;;4998442;28;20455;-71
2023/02/13 02:39:46;;;;;;;30.07;25.47;;;7.80;99.90;;;;;;4998774;28;20501;-71
2023/02/13 02:42:24;;;;;;;28.13;24.90;;;7.80;99.90;;;;;;4998406;28;20456;-71
2023/02/13 02:45:00;;;;;;;32.70;27.10;;;7.80;99.90;;;;;;4998385;28;20476;-71
2023/02/13 02:50:34;;;;;;;35.03;27.63;;;7.70;99.90;;;;;;4998165;28;20502;-71
2023/02/13 02:53:14;;;;;;;28.37;24.67;;;7.70;99.90;;;;;;4997262;28;20474;-71
2023/02/13 02:55:48;;;;;;;33.37;25.80;;;7.80;99.90;;;;;;4998123;28;20915;-71
2023/02/13 03:06:53;;;;;;;29.77;24.70;;;7.70;99.90;;;;;;4997948;28;20496;-71
2023/02/13 03:14:59;;;;;;;29.43;25.03;;;7.70;99.90;;;;;;5015640;28;20433;-71
2023/02/13 03:23:29;;;;;;;38.47;27.97;;;7.70;99.90;;;;;;5014188;28;20453;-71
2023/02/13 03:26:31;;;;;;;31.03;26.37;;;7.70;99.90;;;;;;4997768;28;20488;-71
2023/02/13 03:32:04;;;;;;;33.07;27.00;;;7.70;99.90;;;;;;5015629;28;20422;-71
2023/02/13 03:40:18;;;;;;;32.77;27.70;;;7.70;99.90;;;;;;4997080;28;20470;-71
2023/02/13 03:42:51;;;;;;;35.47;27.70;;;7.70;99.90;;;;;;4997250;28;20828;-71
2023/02/13 03:50:04;;;;;;;34.87;29.07;;;7.70;99.90;;;;;;4997213;28;20445;-71
2023/02/13 03:51:00;;;;;;;32.63;27.60;;;7.60;99.90;;;;;;5014501;28;20461;-71
2023/02/13 03:53:33;;;;;;;37.90;31.73;;;7.70;99.90;;;;;;5014644;28;20442;-71
2023/02/13 04:01:39;;;;;;;40.23;30.87;;;7.60;99.90;;;;;;4996923;28;20961;-71
2023/02/13 04:04:11;;;;;;;35.73;29.77;;;7.60;99.90;;;;;;4996778;28;20449;-71
2023/02/13 04:06:46;;;;;;;39.87;30.97;;;7.60;99.90;;;;;;5014995;28;20461;-72
2023/02/13 04:09:16;;;;;;;41.57;31.97;;;7.60;99.90;;;;;;4996685;28;20471;-72
2023/02/13 04:11:53;;;;;;;39.73;31.53;;;7.70;99.90;;;;;;4996851;28;20571;-72
2023/02/13 04:14:25;;;;;;;33.70;28.47;;;7.60;99.90;;;;;;4996738;28;20434;-72
2023/02/13 04:16:57;;;;;;;36.80;30.00;;;7.60;99.90;;;;;;4996731;28;20450;-72
2023/02/13 04:19:26;;;;;;;43.07;34.30;;;7.60;99.90;;;;;;5014563;28;20485;-71
2023/02/13 04:21:57;;;;;;;40.47;32.30;;;7.60;99.90;;;;;;5014397;28;21010;-71
2023/02/13 04:24:27;;;;;;;41.27;32.67;;;7.60;99.90;;;;;;5014177;28;20432;-71
2023/02/13 04:26:56;;;;;;;37.50;30.70;;;7.60;99.90;;;;;;5013994;28;20544;-71
2023/02/13 04:29:25;;;;;;;39.30;31.30;;;7.60;99.90;;;;;;5014223;28;20461;-71
2023/02/13 04:31:53;;;;;;;36.77;30.13;;;7.60;99.90;;;;;;5013953;28;20552;-71
2023/02/13 04:34:22;;;;;;;36.93;29.30;;;7.60;99.90;;;;;;5014144;28;20440;-72
2023/02/13 04:36:50;;;;;;;33.33;28.77;;;7.60;99.90;;;;;;5013803;28;20457;-71
2023/02/13 04:39:18;;;;;;;36.70;28.67;;;7.60;99.90;;;;;;5014065;28;20457;-71
2023/02/13 04:41:47;;;;;;;38.80;29.33;;;7.60;99.90;;;;;;4996237;28;20451;-71
2023/02/13 04:44:15;;;;;;;38.97;30.67;;;7.60;99.90;;;;;;5013761;28;20530;-71
2023/02/13 04:46:43;;;;;;;35.90;29.20;;;7.60;99.90;;;;;;5013926;28;20482;-71
2023/02/13 04:49:11;;;;;;;38.50;29.60;;;7.60;99.90;;;;;;5013720;28;20462;-71
2023/02/13 04:51:40;;;;;;;37.53;31.03;;;7.60;99.90;;;;;;4996034;28;20455;-71
2023/02/13 04:54:08;;;;;;;41.80;31.43;;;7.60;99.90;;;;;;5014240;28;20798;-71
2023/02/13 04:56:36;;;;;;;38.37;29.53;;;7.60;99.90;;;;;;5013657;28;20819;-71
2023/02/13 04:59:05;;;;;;;38.83;29.87;;;7.60;99.90;;;;;;5013510;28;20441;-71
2023/02/13 05:01:33;;;;;;;36.50;29.80;;;7.60;99.90;;;;;;5013816;28;20435;-71
2023/02/13 05:04:01;;;;;;;36.70;29.10;;;7.60;99.90;;;;;;4995946;28;20453;-71
2023/02/13 05:06:29;;;;;;;43.73;31.70;;;7.60;99.90;;;;;;5013438;28;20447;-72
2023/02/13 05:08:57;;;;;;;38.97;30.80;;;7.60;99.90;;;;;;5013355;28;20972;-71
2023/02/13 05:11:26;;;;;;;35.83;29.00;;;7.60;99.90;;;;;;5013491;28;21093;-71
2023/02/13 05:13:54;;;;;;;38.60;30.40;;;7.60;99.90;;;;;;4995848;28;20873;-71
2023/02/13 05:16:23;;;;;;;36.07;28.03;;;7.60;99.90;;;;;;4995228;28;20475;-71
2023/02/13 05:18:53;;;;;;;36.73;28.70;;;7.60;99.90;;;;;;5013302;28;20432;-71
2023/02/13 05:24:07;;;;;;;38.27;30.83;;;7.60;99.90;;;;;;4995752;28;20447;-71
2023/02/13 05:26:35;;;;;;;35.60;29.10;;;7.60;99.90;;;;;;5013489;28;20448;-71
2023/02/13 05:29:18;;;;;;;37.30;28.50;;;7.60;99.90;;;;;;4995696;28;20439;-71
2023/02/13 05:31:49;;;;;;;39.50;31.30;;;7.60;99.90;;;;;;5013559;28;20794;-71
2023/02/13 05:34:17;;;;;;;34.07;27.17;;;7.60;99.90;;;;;;5013219;28;20482;-71
2023/02/13 05:36:45;;;;;;;39.80;30.27;;;7.60;99.90;;;;;;5012996;28;20512;-71
2023/02/13 05:39:14;;;;;;;40.30;31.70;;;7.50;99.90;;;;;;5013760;28;20462;-71
2023/02/13 05:41:43;;;;;;;43.60;32.70;;;7.60;99.90;;;;;;5013445;28;20538;-71
2023/02/13 05:44:11;;;;;;;43.80;31.70;;;7.50;99.90;;;;;;4995554;28;20441;-71
2023/02/13 05:46:41;;;;;;;42.27;32.50;;;7.60;99.90;;;;;;5013077;28;20442;-71
2023/02/13 05:49:11;;;;;;;40.60;32.63;;;7.50;99.90;;;;;;5013492;28;20463;-71
2023/02/13 05:51:39;;;;;;;38.07;30.07;;;7.50;99.90;;;;;;5013677;28;20427;-71
2023/02/13 05:54:08;;;;;;;40.53;31.53;;;7.50;99.90;;;;;;4995451;28;20459;-71
2023/02/13 05:56:36;;;;;;;39.77;31.07;;;7.60;99.90;;;;;;5013101;28;20440;-71
2023/02/13 05:59:04;;;;;;;41.73;33.57;;;7.50;99.90;;;;;;5013229;28;20449;-71
2023/02/13 06:01:32;;;;;;;37.43;30.07;;;7.50;99.90;;;;;;5013059;28;20442;-71
2023/02/13 06:04:00;;;;;;;37.53;31.53;;;7.50;99.90;;;;;;4995370;28;20451;-71
2023/02/13 06:06:32;;;;;;;44.20;32.97;;;7.60;99.90;;;;;;5013561;28;20427;-72
2023/02/13 06:09:00;;;;;;;38.30;31.83;;;7.50;99.90;;;;;;5012807;28;20513;-72
2023/02/13 06:11:28;;;;;;;38.27;31.83;;;7.50;99.90;;;;;;5012957;28;20449;-71
2023/02/13 06:13:56;;;;;;;40.37;30.70;;;7.50;99.90;;;;;;5012905;28;20441;-72
2023/02/13 06:16:24;;;;;;;40.10;30.97;;;7.50;99.90;;;;;;5012867;28;20809;-72
2023/02/13 06:18:52;;;;;;;39.83;30.70;;;7.50;99.90;;;;;;5012800;28;20443;-72
2023/02/13 06:21:21;;;;;;;38.17;30.77;;;7.50;99.90;;;;;;5012824;28;20441;-72
2023/02/13 06:23:51;;;;;;;40.77;32.73;;;7.50;99.90;;;;;;5013048;28;20438;-72
2023/02/13 06:26:19;;;;;;;42.33;31.37;;;7.50;99.90;;;;;;5012778;28;20474;-72
2023/02/13 06:28:47;;;;;;;37.20;30.80;;;7.50;99.90;;;;;;4997466;28;20477;-71
2023/02/13 06:31:15;;;;;;;39.80;30.03;;;7.50;99.90;;;;;;4998633;28;20452;-72
2023/02/13 06:33:43;;;;;;;42.90;32.07;;;7.50;99.90;;;;;;5016201;28;20452;-71
2023/02/13 06:36:11;;;;;;;44.53;34.27;;;7.50;99.90;;;;;;4998491;28;20450;-72
2023/02/13 06:38:39;;;;;;;37.67;30.50;;;7.50;99.90;;;;;;5016005;28;20926;-71
2023/02/13 06:41:09;;;;;;;41.90;32.90;;;7.50;99.90;;;;;;5015980;28;20458;-72
2023/02/13 06:43:37;;;;;;;43.20;33.17;;;7.50;99.90;;;;;;5016008;28;20450;-72
2023/02/13 06:46:08;;;;;;;41.17;33.07;;;7.50;99.90;;;;;;4998334;28;20447;-71
2023/02/13 06:48:37;;;;;;;38.80;30.83;;;7.50;99.90;;;;;;5015887;28;20590;-72
2023/02/13 06:51:05;;;;;;;42.40;33.87;;;7.50;99.90;;;;;;5015821;28;20457;-71
2023/02/13 06:53:33;;;;;;;46.10;35.17;;;7.50;99.90;;;;;;5015742;28;20448;-72
2023/02/13 06:56:04;;;;;;;46.63;36.37;;;7.50;99.90;;;;;;5015291;28;20531;-72
2023/02/13 06:58:34;;;;;;;49.20;36.07;;;7.50;99.90;;;;;;5015785;28;20497;-72
2023/02/13 07:01:02;;;;;;;48.57;35.63;;;7.50;99.90;;;;;;5015960;28;20470;-72
2023/02/13 07:03:30;;;;;;;42.10;35.47;;;7.50;99.90;;;;;;5015841;28;20453;-72
2023/02/13 07:05:59;;;;;;;44.57;36.07;;;7.50;99.90;;;;;;4998102;28;20969;-72
2023/02/13 07:08:27;;;;;;;42.67;34.80;;;7.50;99.90;;;;;;5015736;28;20492;-72
2023/02/13 07:10:55;;;;;;;46.73;35.23;;;7.50;99.90;;;;;;5016033;28;20517;-72
2023/02/13 07:13:23;;;;;;;42.07;34.13;;;7.50;99.90;;;;;;4998091;28;20804;-71
2023/02/13 07:15:53;;;;;;;43.40;34.20;;;7.50;99.90;;;;;;5015341;28;20942;-71
2023/02/13 07:18:21;;;;;;;45.30;34.87;;;7.50;99.90;;;;;;5015350;28;20450;-71
2023/02/13 07:20:49;;;;;;;41.37;33.80;;;7.50;99.90;;;;;;5015129;28;20473;-72
2023/02/13 07:23:17;;;;;;;48.17;35.87;;;7.50;99.90;;;;;;4997954;28;20814;-71
2023/02/13 07:25:45;;;;;;;47.20;34.50;;;7.50;99.90;;;;;;5015187;28;20433;-71
2023/02/13 07:28:13;;;;;;;42.50;32.30;;;7.50;99.90;;;;;;4997464;28;20475;-71
2023/02/13 07:30:41;;;;;;;47.63;36.27;;;7.50;99.90;;;;;;5015026;28;20552;-71
2023/02/13 07:33:11;;;;;;;45.80;35.03;;;7.50;99.90;;;;;;4997454;28;20449;-71
2023/02/13 07:35:46;;;;;;;47.97;34.70;;;7.50;99.90;;;;;;5015288;28;20488;-72
2023/02/13 07:38:14;;;;;;;46.40;36.20;;;7.50;99.90;;;;;;5014491;28;20455;-72
2023/02/13 07:40:42;;;;;;;46.53;35.50;;;7.50;99.90;;;;;;5015090;28;20469;-72
2023/02/13 07:43:10;;;;;;;49.20;37.57;;;7.50;99.90;;;;;;5015424;28;20483;-72
2023/02/13 07:45:39;;;;;;;46.83;36.30;;;7.50;99.90;;;;;;5015385;28;20449;-72
2023/02/13 07:48:07;;;;;;;42.13;33.37;;;7.50;99.90;;;;;;4997087;28;20465;-72
2023/02/13 07:50:37;;;;;;;46.70;37.10;;;7.50;99.90;;;;;;4997107;28;20477;-72
2023/02/13 07:53:05;;;;;;;45.40;35.00;;;7.50;99.90;;;;;;5014966;28;20439;-72
2023/02/13 07:55:33;;;;;;;43.20;35.30;;;7.50;99.90;;;;;;4997418;28;20860;-72
2023/02/13 07:58:01;;;;;;;47.33;37.70;;;7.50;99.90;;;;;;4996999;28;20462;-72
2023/02/13 08:00:29;;;;;;;47.00;36.70;;;7.50;99.90;;;;;;5014708;28;20457;-72
2023/02/13 08:02:59;;;;;;;64.27;56.87;;;7.50;99.90;;;;;;5014490;28;20808;-72
2023/02/13 08:05:27;;;;;;;52.70;39.67;;;7.50;99.90;;;;;;5014534;28;20445;-72
2023/02/13 08:07:57;;;;;;;51.40;38.60;;;7.50;99.90;;;;;;5014926;28;20500;-72
2023/02/13 08:13:13;;;;;;;48.53;38.80;;;7.50;99.90;;;;;;4996788;28;20461;-72
2023/02/13 08:15:43;;;;;;;53.30;39.90;;;7.50;99.90;;;;;;4996842;28;20537;-72
2023/02/13 08:18:11;;;;;;;56.30;40.80;;;7.50;99.90;;;;;;5014191;28;20445;-72
2023/02/13 08:20:39;;;;;;;62.80;41.70;;;7.60;99.90;;;;;;5014122;28;20570;-72
2023/02/13 08:23:11;;;;;;;55.87;40.70;;;7.50;99.90;;;;;;4996575;28;20801;-72
2023/02/13 08:25:39;;;;;;;53.30;39.47;;;7.60;99.90;;;;;;5014692;28;20476;-72
2023/02/13 08:28:07;;;;;;;59.40;42.10;;;7.50;99.90;;;;;;4996358;28;20875;-72
2023/02/13 08:30:35;;;;;;;50.23;39.77;;;7.50;99.90;;;;;;5014059;28;20451;-72
2023/02/13 08:33:04;;;;;;;55.47;40.30;;;7.50;99.90;;;;;;5013980;28;20562;-72
2023/02/13 08:35:32;;;;;;;56.40;39.90;;;7.50;99.90;;;;;;5014212;28;20435;-72
2023/02/13 08:38:02;;;;;;;52.70;40.00;;;7.50;99.90;;;;;;4996228;28;20801;-72
2023/02/13 08:40:32;;;;;;;49.80;37.97;;;7.60;99.90;;;;;;5013958;28;20453;-72
2023/02/13 08:43:01;;;;;;;46.00;35.10;;;7.50;99.90;;;;;;5013871;28;20442;-72
2023/02/13 08:45:30;;;;;;;47.50;37.13;;;7.50;99.90;;;;;;5013774;28;20811;-72
2023/02/13 08:47:59;;;;;;;46.53;35.30;;;7.50;99.90;;;;;;4996144;28;20500;-72
2023/02/13 08:50:28;;;;;;;43.70;34.07;;;7.50;99.90;;;;;;4995317;28;20485;-72
2023/02/13 08:52:57;;;;;;;52.73;38.53;;;7.50;99.90;;;;;;4996237;28;20442;-72
2023/02/13 08:55:26;;;;;;;47.83;36.93;;;7.50;99.90;;;;;;5013730;28;20463;-72
2023/02/13 08:57:56;;;;;;;48.90;37.77;;;7.50;99.90;;;;;;5013741;28;20440;-71
2023/02/13 09:00:24;;;;;;;48.57;35.47;;;7.50;99.90;;;;;;4995993;28;20495;-72
2023/02/13 09:02:52;;;;;;;46.73;35.93;;;7.50;99.90;;;;;;5013529;28;20437;-72
2023/02/13 09:05:20;;;;;;;53.60;38.57;;;7.50;99.90;;;;;;5013589;28;20445;-72
2023/02/13 09:07:48;;;;;;;50.90;37.87;;;7.50;99.90;;;;;;5013882;28;20437;-72
2023/02/13 09:10:17;;;;;;;50.23;37.30;;;7.60;99.90;;;;;;5013346;28;20488;-72
2023/02/13 09:12:51;;;;;;;56.07;40.20;;;7.60;99.90;;;;;;5013526;28;20446;-72
2023/02/13 09:15:21;;;;;;;55.60;39.37;;;7.60;99.90;;;;;;4995944;28;20540;-72
2023/02/13 09:17:49;;;;;;;51.37;39.03;;;7.60;99.90;;;;;;5013441;28;20438;-72
2023/02/13 09:20:17;;;;;;;56.20;41.10;;;7.70;99.90;;;;;;5013334;28;20537;-72
2023/02/13 09:22:45;;;;;;;50.00;37.60;;;7.70;99.90;;;;;;5013351;28;20450;-71
2023/02/13 09:25:14;;;;;;;54.23;41.17;;;7.70;99.90;;;;;;5013332;28;20446;-72
2023/02/13 09:27:42;;;;;;;57.43;41.17;;;7.70;99.90;;;;;;4995752;28;20460;-72
2023/02/13 09:30:11;;;;;;;54.47;40.60;;;7.70;99.90;;;;;;5013409;28;20486;-72
2023/02/13 09:32:41;;;;;;;53.53;39.80;;;7.70;99.90;;;;;;4995627;28;20446;-72
2023/02/13 09:35:10;;;;;;;58.27;42.67;;;7.70;99.90;;;;;;5013799;28;20437;-71
2023/02/13 09:37:38;;;;;;;55.87;41.70;;;7.80;99.90;;;;;;5013082;28;20446;-72
2023/02/13 09:40:15;;;;;;;60.13;44.10;;;7.80;99.90;;;;;;4995992;28;20471;-72
2023/02/13 09:42:44;;;;;;;56.70;43.57;;;7.80;99.90;;;;;;4995638;28;20451;-72
2023/02/13 09:45:13;;;;;;;58.90;44.30;;;7.80;99.90;;;;;;5013724;28;20922;-72
2023/02/13 09:47:44;;;;;;;58.73;41.00;;;7.80;99.90;;;;;;5013632;28;20439;-71
2023/02/13 09:50:18;;;;;;;54.77;42.73;;;7.80;99.90;;;;;;4995385;28;20476;-72
2023/02/13 09:52:48;;;;;;;57.97;44.27;;;7.90;99.90;;;;;;5013396;28;20440;-72
2023/02/13 09:55:19;;;;;;;58.27;42.80;;;7.90;99.90;;;;;;4995537;28;20950;-72
2023/02/13 09:57:54;;;;;;;56.53;41.80;;;7.90;99.90;;;;;;4995523;28;20523;-72
2023/02/13 10:00:26;;;;;;;55.83;43.70;;;7.90;99.90;;;;;;5013078;28;20565;-72
2023/02/13 10:03:11;;;;;;;55.73;42.07;;;7.90;99.90;;;;;;4997949;28;20443;-72
2023/02/13 10:05:47;;;;;;;54.40;40.50;;;8.00;99.90;;;;;;4999195;28;20441;-72
2023/02/13 10:08:27;;;;;;;51.10;40.13;;;8.00;99.90;;;;;;5016728;28;20787;-71
2023/02/13 10:11:09;;;;;;;57.17;41.00;;;8.00;99.90;;;;;;4998989;28;20475;-72
2023/02/13 10:13:54;;;;;;;49.57;39.87;;;8.00;99.90;;;;;;4999307;28;20462;-72
2023/02/13 10:16:25;;;;;;;50.97;39.57;;;8.10;99.90;;;;;;5016804;28;20439;-72
2023/02/13 10:18:59;;;;;;;50.33;39.40;;;8.10;99.90;;;;;;4998777;28;20796;-72
2023/02/13 10:21:31;;;;;;;55.83;42.17;;;8.10;99.90;;;;;;4998773;28;20954;-72
2023/02/13 10:24:04;;;;;;;52.93;40.70;;;8.10;99.90;;;;;;4998891;28;20923;-71
2023/02/13 10:26:44;;;;;;;54.23;41.97;;;8.10;99.90;;;;;;4998655;28;20446;-72
2023/02/13 10:32:08;;;;;;;53.93;40.57;;;8.20;99.90;;;;;;4998688;28;20433;-71
2023/02/13 10:34:43;;;;;;;55.83;42.77;;;8.20;99.90;;;;;;5016369;28;20451;-72
2023/02/13 10:37:15;;;;;;;57.60;44.03;;;8.30;99.90;;;;;;5016115;28;20854;-72
2023/02/13 10:39:46;;;;;;;60.30;43.70;;;8.20;99.90;;;;;;5016375;28;20476;-70
2023/02/13 10:42:22;;;;;;;58.37;45.20;;;8.30;99.90;;;;;;4998615;28;20470;-71
2023/02/13 10:45:01;;;;;;;55.93;45.10;;;8.30;99.90;;;;;;5016363;28;20461;-72
2023/02/13 10:48:00;;;;;;;57.43;42.97;;;8.30;99.90;;;;;;5016061;28;20419;-71
2023/02/13 10:50:35;;;;;;;56.57;42.93;;;8.30;99.90;;;;;;4979676;28;20870;-72
2023/02/13 10:53:14;;;;;;;54.40;42.67;;;8.40;99.90;;;;;;4999166;28;20795;-71
2023/02/13 10:56:05;;;;;;;54.47;42.40;;;8.40;99.90;;;;;;4998348;28;20527;-72
2023/02/13 10:58:47;;;;;;;63.30;46.53;;;8.40;99.90;;;;;;5015871;28;20493;-72
2023/02/13 11:01:21;;;;;;;60.10;45.87;;;8.50;99.90;;;;;;5015887;28;20451;-72
2023/02/13 11:04:01;;;;;;;58.93;45.73;;;8.50;99.90;;;;;;5016174;28;20515;-71
2023/02/13 11:06:30;;;;;;;57.37;45.67;;;8.50;99.90;;;;;;4998044;28;20805;-70
2023/02/13 11:08:59;;;;;;;59.67;45.03;;;8.50;99.90;;;;;;4997832;28;20459;-71
2023/02/13 11:11:35;;;;;;;58.30;44.90;;;8.50;99.90;;;;;;4997874;28;20998;-71
2023/02/13 11:14:16;;;;;;;58.27;44.33;;;8.50;99.90;;;;;;5014922;28;20827;-71
2023/02/13 11:16:54;;;;;;;52.03;41.47;;;8.50;99.90;;;;;;5015412;28;20435;-71
2023/02/13 11:19:26;;;;;;;56.87;43.00;;;8.60;99.90;;;;;;5015306;28;20460;-69
2023/02/13 11:21:59;;;;;;;52.27;41.27;;;8.60;99.90;;;;;;5015626;28;20435;-70
2023/02/13 11:24:29;;;;;;;48.00;40.43;;;8.60;99.90;;;;;;4997826;28;20442;-71
2023/02/13 11:27:04;;;;;;;57.20;41.90;;;8.60;99.90;;;;;;5015342;28;20454;-71
2023/02/13 11:29:34;;;;;;;50.37;40.10;;;8.60;99.90;;;;;;5015280;28;20473;-69
2023/02/13 11:32:20;;;;;;;49.67;39.67;;;8.60;99.90;;;;;;5015434;28;20490;-71
2023/02/13 11:34:50;;;;;;;49.83;40.40;;;8.60;99.90;;;;;;5015468;28;20424;-69
2023/02/13 11:37:26;;;;;;;51.77;39.97;;;8.60;99.90;;;;;;5014951;28;20464;-71
2023/02/13 11:39:56;;;;;;;46.53;37.67;;;8.70;99.90;;;;;;5015200;28;20467;-71
2023/02/13 11:42:30;;;;;;;47.73;38.77;;;8.70;99.90;;;;;;5014966;28;20515;-70
2023/02/13 11:45:02;;;;;;;45.77;37.90;;;8.70;99.90;;;;;;5014977;28;21002;-70
2023/02/13 11:47:37;;;;;;;43.90;35.90;;;8.70;99.90;;;;;;5015119;28;20533;-71
2023/02/13 11:50:18;;;;;;;41.43;34.50;;;8.60;99.90;;;;;;4997099;28;20470;-70
2023/02/13 11:52:56;;;;;;;38.30;33.57;;;8.70;99.90;;;;;;5014818;28;20887;-70
2023/02/13 11:55:28;;;;;;;40.30;33.67;;;8.70;99.90;;;;;;5015313;28;20416;-71
2023/02/13 11:57:59;;;;;;;43.30;35.67;;;8.70;99.90;;;;;;5015055;28;20421;-72
2023/02/13 12:00:36;;;;;;;38.93;34.40;;;8.70;99.90;;;;;;5014618;28;21056;-72
2023/02/13 12:03:26;;;;;;;43.20;35.37;;;8.70;99.90;;;;;;4997010;28;20462;-72
2023/02/13 12:06:03;;;;;;;46.77;39.87;;;8.70;99.90;;;;;;5014828;28;20945;-71
2023/02/13 12:08:34;;;;;;;49.73;44.33;;;8.70;99.90;;;;;;5014723;28;20439;-72
2023/02/13 12:11:10;;;;;;;48.73;42.00;;;8.70;99.90;;;;;;4996670;28;20471;-70
2023/02/13 12:13:39;;;;;;;43.10;38.30;;;8.70;99.90;;;;;;4996845;28;20436;-72
2023/02/13 12:16:16;;;;;;;41.67;35.07;;;8.70;99.90;;;;;;5014595;28;20454;-72
2023/02/13 12:18:49;;;;;;;41.60;35.97;;;8.70;99.90;;;;;;5014308;28;20431;-72
2023/02/13 12:21:29;;;;;;;44.37;35.07;;;8.70;99.90;;;;;;5014468;28;20436;-71
2023/02/13 12:24:08;;;;;;;41.63;34.73;;;8.70;99.90;;;;;;4996639;28;20443;-71
2023/02/13 12:26:41;;;;;;;45.87;36.83;;;8.60;99.90;;;;;;5014346;28;20431;-72
2023/02/13 12:29:36;;;;;;;42.07;35.87;;;8.60;99.90;;;;;;5014320;28;20426;-71
2023/02/13 12:32:17;;;;;;;41.03;34.37;;;8.70;99.90;;;;;;5013834;28;20578;-71
2023/02/13 12:35:26;;;;;;;41.67;34.70;;;8.70;99.90;;;;;;5014338;28;20419;-69
2023/02/13 12:38:03;;;;;;;38.90;33.47;;;8.70;99.90;;;;;;5013974;28;20452;-69
2023/02/13 12:41:04;;;;;;;40.97;34.47;;;8.70;99.90;;;;;;5013891;28;20456;-69
2023/02/13 12:44:17;;;;;;;44.23;34.83;;;8.70;99.90;;;;;;5014417;28;20887;-70
2023/02/13 12:46:54;;;;;;;39.47;35.17;;;8.80;99.90;;;;;;4989840;28;20443;-71
2023/02/13 12:49:43;;;;;;;42.40;35.37;;;8.80;99.90;;;;;;5014014;28;20567;-71
2023/02/13 12:52:28;;;;;;;38.70;33.77;;;8.80;99.90;;;;;;5013804;28;20456;-71
2023/02/13 12:55:14;;;;;;;38.63;34.03;;;8.80;99.90;;;;;;4996348;28;20450;-71
2023/02/13 12:57:56;;;;;;;34.73;31.00;;;8.80;99.90;;;;;;5013744;28;20810;-71
2023/02/13 13:00:35;;;;;;;40.40;33.17;;;8.80;99.90;;;;;;5013878;28;20459;-71
2023/02/13 13:03:34;;;;;;;40.07;33.40;;;8.90;99.90;;;;;;5013751;28;20438;-70
2023/02/13 13:06:31;;;;;;;39.63;33.70;;;8.90;99.90;;;;;;5013565;28;20423;-70
2023/02/13 13:09:25;;;;;;;39.23;34.93;;;8.80;99.90;;;;;;4995979;28;20451;-70
2023/02/13 13:12:17;;;;;;;39.00;33.20;;;8.90;99.90;;;;;;5013658;28;20483;-71
2023/02/13 13:14:54;;;;;;;40.67;32.80;;;8.90;99.90;;;;;;5013619;28;20419;-71
2023/02/13 13:17:38;;;;;;;35.97;32.07;;;8.90;99.90;;;;;;4995967;28;20458;-71
2023/02/13 13:20:40;;;;;;;42.77;35.53;;;8.90;99.90;;;;;;4995873;28;20468;-71
2023/02/13 13:23:13;;;;;;;40.60;36.10;;;8.90;99.90;;;;;;4991670;28;20453;-71
2023/02/13 13:25:48;;;;;;;38.40;34.23;;;8.90;99.90;;;;;;5013762;28;20504;-71
2023/02/13 13:28:21;;;;;;;40.40;34.03;;;8.90;99.90;;;;;;5013871;28;20424;-71
2023/02/13 13:30:53;;;;;;;37.97;33.10;;;8.90;99.90;;;;;;4995653;28;20471;-71
2023/02/13 13:33:23;;;;;;;40.23;34.07;;;8.90;99.90;;;;;;4995705;28;20443;-72
2023/02/13 13:35:59;;;;;;;37.37;33.37;;;9.00;99.90;;;;;;5013604;28;20440;-71
2023/02/13 13:38:38;;;;;;;38.30;33.27;;;9.00;99.90;;;;;;4999170;28;20451;-71
2023/02/13 13:41:14;;;;;;;41.83;34.20;;;9.00;99.90;;;;;;4999517;28;20463;-71
2023/02/13 13:43:59;;;;;;;38.60;34.40;;;9.00;99.90;;;;;;5017363;28;20823;-71
2023/02/13 13:46:40;;;;;;;38.73;34.47;;;9.00;99.90;;;;;;5017322;28;20430;-71
2023/02/13 13:49:21;;;;;;;39.80;33.27;;;9.00;99.90;;;;;;5016942;28;20422;-71
2023/02/13 13:51:49;;;;;;;36.13;32.23;;;9.00;99.90;;;;;;4999351;28;20467;-71
2023/02/13 13:54:21;;;;;;;39.20;33.80;;;9.00;99.90;;;;;;5017223;28;20957;-71